Carmona, Spain
Current Conditions -  °F | °C
As of 9:00 AM on Thursday 29 Jan 2015 (Local Time) from LEZL Reporting Station
Light Fog Light Fog  
Wind Chill: 37°   Ceiling: Unl
Heat Index: 37°   Visibility: 0.93mi
Dew Point: 37°   Wind: 2mph
Humidity: 100%   Direction: 320°NW
Pressure: 30.21"   Gusts: NA
Location:  37.47°N, 5.65°W
Report Text: LEZL 290800Z 32002KT 1500 BR BCFG FEW001 03/03 Q1023 BECMG 3000 BR
Loading
Personal Weather Stations






























Interactive Weather Map New forecast layout! Learn more

10-Day Weather Forecast

Advertisements
Track Severe Weather on mobile